createdAt,value
2022-12-27T00:02:44.288Z,101466.97
2022-12-27T00:07:45.936Z,101467.53
2022-12-27T00:12:47.570Z,101482.47
2022-12-27T00:17:49.259Z,101484.44
2022-12-27T00:22:56.271Z,101491.88
2022-12-27T00:27:57.846Z,101479.19
2022-12-27T00:32:59.436Z,101474.59
2022-12-27T00:38:01.002Z,101468.69
2022-12-27T00:43:02.676Z,101467.66
2022-12-27T00:48:04.496Z,101469.44
2022-12-27T00:53:06.770Z,101474.63
2022-12-27T00:58:09.012Z,101462.75
2022-12-27T01:03:10.790Z,101457.75
2022-12-27T01:08:12.718Z,101460.22
2022-12-27T01:13:14.429Z,101463.19
2022-12-27T01:18:15.993Z,101457.81
2022-12-27T01:23:17.549Z,101449.16
2022-12-27T01:28:19.135Z,101449.59
2022-12-27T01:33:20.790Z,101460.13
2022-12-27T01:38:22.343Z,101456.88
2022-12-27T01:43:37.890Z,101457.44
2022-12-27T01:48:39.774Z,101468.84
2022-12-27T01:53:44.820Z,101479.34
2022-12-27T01:59:04.156Z,101483.31
2022-12-27T02:04:25.350Z,101487.16
2022-12-27T02:09:53.522Z,101503.09
2022-12-27T02:14:55.198Z,101494.69
2022-12-27T02:20:19.682Z,101492.28
2022-12-27T02:25:39.815Z,101502.22
2022-12-27T02:30:46.756Z,101495.84
2022-12-27T02:35:56.610Z,101491.16
2022-12-27T02:41:21.311Z,101489.16
2022-12-27T02:46:47.616Z,101494.25
2022-12-27T02:52:49.681Z,101500.94
2022-12-27T02:57:57.298Z,101505.50
2022-12-27T03:03:28.801Z,101507.06
2022-12-27T03:08:42.493Z,101504.78
2022-12-27T03:14:35.562Z,101510.06
2022-12-27T03:20:02.273Z,101513.34
2022-12-27T03:25:23.572Z,101516.44
2022-12-27T03:30:43.801Z,101516.16
2022-12-27T03:36:28.973Z,101513.34
2022-12-27T03:41:56.137Z,101515.84
2022-12-27T03:47:00.695Z,101534.06
2022-12-27T03:52:14.678Z,101529.78
2022-12-27T03:57:22.930Z,101535.34
2022-12-27T04:02:24.779Z,101535.78
2022-12-27T04:07:26.458Z,101523.38
2022-12-27T04:12:46.757Z,101525.81
2022-12-27T04:18:06.944Z,101526.53
2022-12-27T04:23:27.164Z,101521.94
2022-12-27T04:28:47.341Z,101532.50
2022-12-27T04:34:07.799Z,101525.53
2022-12-27T04:39:10.632Z,101532.06
2022-12-27T04:44:30.927Z,101522.53
2022-12-27T04:49:52.641Z,101524.53
2022-12-27T04:54:57.080Z,101527.97
2022-12-27T05:00:17.134Z,101538.19
2022-12-27T05:05:20.140Z,101536.19
2022-12-27T05:10:40.843Z,101537.47
2022-12-27T05:15:42.458Z,101545.19
2022-12-27T05:20:44.175Z,101549.44
2022-12-27T05:25:47.344Z,101555.53
2022-12-27T05:30:48.937Z,101564.19
2022-12-27T05:35:50.862Z,101564.06
2022-12-27T05:40:57.902Z,101561.38
2022-12-27T05:46:11.348Z,101561.09
2022-12-27T05:51:21.246Z,101556.41
2022-12-27T05:56:23.080Z,101558.81
2022-12-27T06:01:25.522Z,101562.53
2022-12-27T06:06:27.175Z,101579.13
2022-12-27T06:11:28.737Z,101589.81
2022-12-27T06:16:30.313Z,101588.53
2022-12-27T06:21:34.354Z,101587.34
2022-12-27T06:26:35.957Z,101583.22
2022-12-27T06:31:37.832Z,101591.50
2022-12-27T06:36:39.738Z,101597.88
2022-12-27T06:41:41.357Z,101604.28
2022-12-27T06:46:44.033Z,101600.72
2022-12-27T06:51:45.633Z,101613.38
2022-12-27T06:56:47.228Z,101619.19
2022-12-27T07:01:48.865Z,101627.69
2022-12-27T07:06:50.540Z,101627.25
2022-12-27T07:11:54.022Z,101627.25
2022-12-27T07:16:55.624Z,101629.38
2022-12-27T07:21:57.652Z,101636.16
2022-12-27T07:27:00.237Z,101644.84
2022-12-27T07:32:01.858Z,101648.00
2022-12-27T07:37:03.573Z,101642.75
2022-12-27T07:42:08.307Z,101648.84
2022-12-27T07:47:12.269Z,101646.44
2022-12-27T07:52:13.806Z,101647.03
2022-12-27T07:57:15.382Z,101648.03
2022-12-27T08:02:17.194Z,101651.91
2022-12-27T08:07:19.944Z,101657.34
2022-12-27T08:12:21.684Z,101665.31
2022-12-27T08:17:27.372Z,101659.34
2022-12-27T08:22:28.979Z,101671.03
2022-12-27T08:27:30.542Z,101671.31
2022-12-27T08:32:32.146Z,101675.03
2022-12-27T08:37:33.883Z,101669.34
2022-12-27T08:42:35.452Z,101672.19
2022-12-27T08:47:38.219Z,101691.69
2022-12-27T08:52:40.604Z,101689.84
2022-12-27T08:57:42.178Z,101692.81
2022-12-27T09:02:43.870Z,101693.94
2022-12-27T09:07:46.917Z,101699.63
2022-12-27T09:12:48.658Z,101698.41
2022-12-27T09:17:50.254Z,101702.25
2022-12-27T09:22:52.184Z,101708.88
2022-12-27T09:27:53.909Z,101710.63
2022-12-27T09:32:55.505Z,101717.59
2022-12-27T09:37:57.233Z,101725.72
2022-12-27T09:43:19.613Z,101726.16
2022-12-27T09:48:33.544Z,101728.41
2022-12-27T09:53:52.035Z,101730.00
2022-12-27T09:58:58.525Z,101728.13
2022-12-27T10:04:01.360Z,101730.00
2022-12-27T10:09:14.756Z,101727.22
2022-12-27T10:14:31.428Z,101718.47
2022-12-27T10:19:59.027Z,101724.94
2022-12-27T10:25:05.032Z,101731.22
2022-12-27T10:30:14.691Z,101733.97
2022-12-27T10:35:19.861Z,101751.69
2022-12-27T10:40:31.067Z,101754.91
2022-12-27T10:45:39.310Z,101762.91
2022-12-27T10:50:47.091Z,101784.03
2022-12-27T10:55:48.694Z,101779.25
2022-12-27T11:00:57.721Z,101798.34
2022-12-27T11:06:05.773Z,101821.66
2022-12-27T11:11:23.688Z,101819.63
2022-12-27T11:16:31.270Z,101807.53
2022-12-27T11:21:38.503Z,101817.09
2022-12-27T11:26:53.637Z,101819.97
2022-12-27T11:31:56.902Z,101838.53
2022-12-27T11:37:18.361Z,101841.25
2022-12-27T11:42:33.655Z,101880.44
2022-12-27T11:47:44.488Z,101886.06
2022-12-27T11:53:02.565Z,101883.53
2022-12-27T11:58:41.691Z,101923.91
2022-12-27T12:04:05.390Z,101929.88
2022-12-27T12:09:44.931Z,101964.16
2022-12-27T12:14:53.756Z,101980.31
2022-12-27T12:20:10.802Z,101965.66
2022-12-27T12:25:35.132Z,101961.88
2022-12-27T12:31:15.343Z,101966.84
2022-12-27T12:36:38.535Z,101984.88
2022-12-27T12:41:50.909Z,102015.13
2022-12-27T12:47:12.661Z,102038.97
2022-12-27T12:52:25.415Z,102049.22
2022-12-27T12:58:02.592Z,102048.19
2022-12-27T13:03:26.132Z,102045.47
2022-12-27T13:08:33.621Z,102031.66
2022-12-27T13:14:18.919Z,101999.09
2022-12-27T13:19:26.243Z,101974.88
2022-12-27T13:24:52.843Z,101943.00
2022-12-27T13:30:06.448Z,101945.56
2022-12-27T13:35:27.296Z,101931.22
2022-12-27T13:41:04.428Z,101929.69
2022-12-27T13:46:28.080Z,101926.25
2022-12-27T13:51:50.910Z,101913.84
2022-12-27T13:57:06.131Z,101917.22
2022-12-27T14:02:32.664Z,101912.59
2022-12-27T14:07:53.226Z,101892.59
2022-12-27T14:12:58.107Z,101866.53
2022-12-27T14:18:15.124Z,101845.56
2022-12-27T14:23:22.476Z,101834.72
2022-12-27T14:28:48.821Z,101817.66
2022-12-27T14:34:23.050Z,101791.53
2022-12-27T14:39:43.040Z,101785.72
2022-12-27T14:45:21.422Z,101757.56
2022-12-27T14:50:26.017Z,101735.59
2022-12-27T14:56:07.711Z,101711.72
2022-12-27T15:01:24.540Z,101681.59
2022-12-27T15:06:44.408Z,101660.78
2022-12-27T15:11:56.529Z,101635.34
2022-12-27T15:17:24.059Z,101620.00
2022-12-27T15:22:33.769Z,101613.97
2022-12-27T15:28:05.842Z,101599.81
2022-12-27T15:33:19.430Z,101587.19
2022-12-27T15:38:53.573Z,101578.59
2022-12-27T15:44:18.812Z,101561.34
2022-12-27T15:49:39.292Z,101552.59
2022-12-27T15:55:05.138Z,101547.41
2022-12-27T16:00:33.904Z,101529.66
2022-12-27T16:05:44.093Z,101531.06
2022-12-27T16:10:45.884Z,101532.03
2022-12-27T16:15:52.041Z,101527.34
2022-12-27T16:21:06.915Z,101499.81
2022-12-27T16:26:16.320Z,101473.72
2022-12-27T16:31:22.320Z,101445.72
2022-12-27T16:36:34.149Z,101428.59
2022-12-27T16:41:42.302Z,101415.44
2022-12-27T16:47:02.523Z,101391.56
2022-12-27T16:52:23.871Z,101366.75
2022-12-27T16:57:25.472Z,101349.16
2022-12-27T17:02:46.663Z,101332.53
2022-12-27T17:07:55.248Z,101315.78
2022-12-27T17:13:04.553Z,101309.44
2022-12-27T17:18:26.441Z,101302.34
2022-12-27T17:23:28.951Z,101305.59
2022-12-27T17:28:40.080Z,101290.72
2022-12-27T17:34:03.106Z,101275.25
2022-12-27T17:39:26.768Z,101281.34
2022-12-27T17:44:53.779Z,101280.63
2022-12-27T17:50:00.563Z,101286.84
2022-12-27T17:55:47.251Z,101276.50
2022-12-27T18:00:56.611Z,101263.44
2022-12-27T18:05:58.469Z,101243.28
2022-12-27T18:11:02.577Z,101251.91
2022-12-27T18:16:15.324Z,101245.78
2022-12-27T18:21:26.543Z,101245.47
2022-12-27T18:26:36.280Z,101225.03
2022-12-27T18:31:46.685Z,101229.00
2022-12-27T18:36:54.918Z,101239.31
2022-12-27T18:41:58.021Z,101241.28
2022-12-27T18:47:03.270Z,101242.72
2022-12-27T18:52:15.068Z,101248.22
2022-12-27T18:57:37.159Z,101246.97
2022-12-27T19:02:38.916Z,101247.13
2022-12-27T19:07:41.250Z,101243.06
2022-12-27T19:12:43.899Z,101238.09
2022-12-27T19:17:48.961Z,101243.19
2022-12-27T19:22:53.368Z,101237.75
2022-12-27T19:28:02.789Z,101252.59
2022-12-27T19:33:14.455Z,101248.75
2022-12-27T19:38:25.101Z,101250.28
2022-12-27T19:43:30.316Z,101246.28
2022-12-27T19:48:31.975Z,101242.09
2022-12-27T19:53:42.232Z,101248.56
2022-12-27T19:58:44.037Z,101235.50
2022-12-27T20:03:45.607Z,101230.09
2022-12-27T20:08:49.682Z,101229.50
2022-12-27T20:13:51.290Z,101224.66
2022-12-27T20:18:52.931Z,101223.34
2022-12-27T20:23:54.941Z,101223.81
2022-12-27T20:28:56.657Z,101221.06
2022-12-27T20:33:58.252Z,101213.41
2022-12-27T20:38:59.905Z,101205.22
2022-12-27T20:44:01.494Z,101201.53
2022-12-27T20:49:03.313Z,101201.81
2022-12-27T20:54:04.996Z,101197.06
2022-12-27T20:59:07.136Z,101197.63
2022-12-27T21:04:09.558Z,101195.00
2022-12-27T21:09:11.147Z,101199.28
2022-12-27T21:14:13.003Z,101200.00
2022-12-27T21:19:15.005Z,101192.78
2022-12-27T21:24:16.777Z,101195.22
2022-12-27T21:29:19.366Z,101194.63
2022-12-27T21:34:21.009Z,101195.06
2022-12-27T21:39:22.639Z,101201.25
2022-12-27T21:44:25.482Z,101194.94
2022-12-27T21:49:27.237Z,101195.19
2022-12-27T21:54:28.821Z,101194.94
2022-12-27T21:59:30.407Z,101173.06
2022-12-27T22:04:31.942Z,101173.94
2022-12-27T22:09:33.807Z,101163.72
2022-12-27T22:14:37.159Z,101168.44
2022-12-27T22:19:38.926Z,101166.44
2022-12-27T22:24:40.463Z,101152.50
2022-12-27T22:29:42.015Z,101155.78
2022-12-27T22:34:43.588Z,101157.09
2022-12-27T22:39:45.170Z,101165.75
2022-12-27T22:44:46.771Z,101166.47
2022-12-27T22:49:48.411Z,101158.72
2022-12-27T22:55:04.546Z,101168.00
2022-12-27T23:00:12.779Z,101166.75
2022-12-27T23:05:14.340Z,101165.63
2022-12-27T23:10:15.995Z,101162.59
2022-12-27T23:15:17.756Z,101168.63
2022-12-27T23:20:19.699Z,101158.84
2022-12-27T23:25:21.304Z,101142.19
2022-12-27T23:30:23.042Z,101137.81
2022-12-27T23:35:24.811Z,101146.97
2022-12-27T23:40:26.407Z,101147.44
2022-12-27T23:45:28.001Z,101136.81
2022-12-27T23:50:29.610Z,101129.13
2022-12-27T23:55:32.309Z,101120.38
